Decoded Metar for YTNK (TENNANT CREEK in _UNIDENTIFIED) (IATA:TCA) | Meteo·Mobile Aviation Weather
aviador You're here:

YTNK Decoded Metar

TENNANT CREEK in _UNIDENTIFIED
Report Time2018-08-21 22:00:00
UTC Time2018-08-21 22:19:46
Flight Rules vfr VFR
Wind070° at 08 kt
W.Decomp.*RWY 07: 8.0 kt HW 0.6 kt LCW
RWY 11: 5.8 kt HW 5.6 kt LCW
W.Rank070° ranks 7
Current wind is below 070° avg. (8.4)
Visibility9999 m
Phenomena:N/A
Clouds:N/A
Expected CloudBase > 10,800 ft AGL from Temp-Dew spread
CeilingNone
Temp14°C (ISA +1)
Dew Point-13°C (14% RH)
AAT7.9°C
QNH1017 hPa
Density Alt1,312 ft
Elevation1,237 ft
Report Wrong Elevation
Raw Report
YTNK 212200Z AUTO 07008KT 9999 // NCD 14/M13 Q1017=

Extra information for YTNK:More info

Metar Taf Metar & Taf Last 4 Metars F.Rules Stats Wind Profile Meteogram Temp Stats Airport Information Weather charts Add Link Nearby VenuesMetar ALERT Operation Metar Decoded Social comments